Time;durP1;ratioP1;P1;durP2;ratioP2;P2;SDS_P1;SDS_P2;PMS_P1;PMS_P2;Temp;Humidity;BMP_temperature;BMP_pressure;BME280_temperature;BME280_humidity;BME280_pressure;Samples;Min_cycle;Max_cycle;Signal;HPM_P1;HPM_P2
2023/12/03 00:00:53;;;;;;;11.30;8.10;;;;;;;-2.75;100.00;100042.28;176673;1273;45247;-85
2023/12/03 00:05:15;;;;;;;9.80;6.40;;;;;;;-2.71;100.00;100047.89;176701;1268;46354;-84
2023/12/03 00:09:17;;;;;;;13.00;8.10;;;;;;;-2.66;100.00;100052.80;176736;1267;59146;-83
2023/12/03 00:13:19;;;;;;;13.20;10.00;;;;;;;-2.59;100.00;100045.11;176499;1267;46523;-85
2023/12/03 00:17:20;;;;;;;11.80;7.70;;;;;;;-2.60;100.00;100053.11;177466;1267;46019;-85
2023/12/03 00:21:22;;;;;;;12.90;8.00;;;;;;;-2.60;100.00;100055.88;176823;1268;46125;-84
2023/12/03 00:25:24;;;;;;;13.80;8.50;;;;;;;-2.57;100.00;100055.09;176382;1267;46037;-83
2023/12/03 00:29:27;;;;;;;14.90;9.30;;;;;;;-2.49;100.00;100052.77;176821;1268;58177;-83
2023/12/03 00:33:28;;;;;;;14.00;7.40;;;;;;;-2.46;100.00;100062.05;176652;1272;46107;-84
2023/12/03 00:37:30;;;;;;;13.60;8.00;;;;;;;-2.45;100.00;100067.77;178608;1271;46106;-84
2023/12/03 00:41:32;;;;;;;12.80;8.40;;;;;;;-2.45;100.00;100063.95;179718;1272;46103;-84
2023/12/03 00:45:34;;;;;;;19.50;13.90;;;;;;;-2.42;100.00;100073.92;177005;1268;46043;-83
2023/12/03 00:49:35;;;;;;;15.40;10.00;;;;;;;-2.40;100.00;100079.41;176776;1271;59544;-84
2023/12/03 00:53:38;;;;;;;12.60;8.30;;;;;;;-2.39;100.00;100091.02;176338;1267;46342;-81
2023/12/03 00:57:40;;;;;;;18.00;11.70;;;;;;;-2.33;100.00;100096.05;176689;1267;46157;-84
2023/12/03 01:01:41;;;;;;;12.90;9.80;;;;;;;-2.25;100.00;100095.46;176568;1269;46029;-83
2023/12/03 01:05:43;;;;;;;14.60;10.20;;;;;;;-2.20;100.00;100105.86;177099;1268;44319;-81
2023/12/03 01:09:45;;;;;;;10.50;6.30;;;;;;;-2.15;100.00;100109.23;177820;1267;58246;-83
2023/12/03 01:13:47;;;;;;;17.90;9.40;;;;;;;-2.18;100.00;100112.24;177077;1271;46155;-83
2023/12/03 01:17:49;;;;;;;14.30;9.20;;;;;;;-2.17;100.00;100116.74;176626;1267;46071;-83
2023/12/03 01:21:50;;;;;;;18.20;11.60;;;;;;;-2.15;100.00;100118.95;176999;1268;46024;-83
2023/12/03 01:25:52;;;;;;;17.90;11.20;;;;;;;-2.20;100.00;100119.43;177032;1271;47676;-82
2023/12/03 01:29:55;;;;;;;20.30;12.60;;;;;;;-2.14;100.00;100121.87;177054;1269;222191;-80
2023/12/03 01:33:57;;;;;;;21.60;12.20;;;;;;;-2.12;100.00;100121.64;176688;1267;45987;-82
2023/12/03 01:37:59;;;;;;;21.60;10.60;;;;;;;-2.12;100.00;100124.41;177128;1271;46151;-83
2023/12/03 01:42:01;;;;;;;17.80;10.10;;;;;;;-2.10;100.00;100125.74;176980;1271;44019;-84
2023/12/03 01:46:04;;;;;;;19.90;9.80;;;;;;;-2.15;100.00;100131.13;177528;1271;46021;-83
2023/12/03 01:50:07;;;;;;;18.40;12.00;;;;;;;-2.17;100.00;100130.27;176895;1267;58219;-83
2023/12/03 01:54:09;;;;;;;16.90;9.00;;;;;;;-2.15;100.00;100133.90;176944;1270;46119;-83
2023/12/03 01:58:11;;;;;;;19.70;10.90;;;;;;;-2.19;100.00;100137.29;177591;1267;44198;-82
2023/12/03 02:02:13;;;;;;;17.30;10.60;;;;;;;-2.16;100.00;100135.48;176659;1268;46021;-82
2023/12/03 02:06:14;;;;;;;17.30;10.70;;;;;;;-2.13;100.00;100145.65;176764;1267;46004;-82
2023/12/03 02:10:16;;;;;;;25.30;10.90;;;;;;;-2.17;100.00;100150.09;177510;1268;58557;-82
2023/12/03 02:14:18;;;;;;;21.40;12.10;;;;;;;-2.10;100.00;100155.13;176465;1268;47255;-83
2023/12/03 02:18:20;;;;;;;22.00;13.00;;;;;;;-2.06;100.00;100155.67;177181;1267;46209;-83
2023/12/03 02:22:22;;;;;;;22.20;11.90;;;;;;;-2.14;100.00;100160.95;176585;1267;46072;-83
2023/12/03 02:26:23;;;;;;;15.00;10.40;;;;;;;-2.13;100.00;100173.80;177567;1269;44160;-82
2023/12/03 02:30:25;;;;;;;19.80;12.30;;;;;;;-2.17;100.00;100180.31;177007;1272;58047;-84
2023/12/03 02:34:27;;;;;;;16.50;11.40;;;;;;;-2.14;100.00;100184.95;176533;1267;46053;-81
2023/12/03 02:38:29;;;;;;;21.90;13.00;;;;;;;-2.13;100.00;100181.45;176621;1272;46276;-83
2023/12/03 02:42:30;;;;;;;22.40;12.50;;;;;;;-2.09;100.00;100186.86;176832;1267;44303;-83
2023/12/03 02:46:32;;;;;;;16.80;12.30;;;;;;;-2.01;100.00;100190.10;176502;1268;46111;-83
2023/12/03 02:50:34;;;;;;;20.30;11.90;;;;;;;-2.02;100.00;100200.55;176770;1267;59557;-82
2023/12/03 02:54:38;;;;;;;17.60;11.10;;;;;;;-2.00;100.00;100196.84;177417;1267;46223;-83
2023/12/03 02:58:40;;;;;;;19.10;11.70;;;;;;;-2.03;100.00;100205.27;177567;1268;45992;-83
2023/12/03 03:02:42;;;;;;;12.70;8.40;;;;;;;-2.03;100.00;100205.80;176816;1267;44429;-82
2023/12/03 03:06:44;;;;;;;16.20;10.80;;;;;;;-2.06;100.00;100219.27;176836;1268;45997;-83
2023/12/03 03:10:46;;;;;;;16.10;10.60;;;;;;;-2.07;100.00;100221.23;177000;1268;60119;-82
2023/12/03 03:14:48;;;;;;;22.50;12.20;;;;;;;-2.08;100.00;100227.15;177062;1268;45920;-83
2023/12/03 03:18:50;;;;;;;17.30;9.70;;;;;;;-2.07;100.00;100226.27;177087;1272;46181;-83
2023/12/03 03:22:52;;;;;;;25.50;14.60;;;;;;;-2.09;100.00;100236.57;176922;1268;46117;-82
2023/12/03 03:26:54;;;;;;;20.10;13.10;;;;;;;-2.12;100.00;100241.72;176950;1267;46134;-82
2023/12/03 03:30:56;;;;;;;16.30;11.40;;;;;;;-2.12;100.00;100253.70;177754;1268;59486;-82
2023/12/03 03:34:58;;;;;;;18.60;12.00;;;;;;;-2.09;100.00;100253.59;177254;1272;46116;-83
2023/12/03 03:39:00;;;;;;;17.60;12.00;;;;;;;-2.09;100.00;100265.07;176483;1267;46081;-82
2023/12/03 03:43:01;;;;;;;19.40;10.30;;;;;;;-2.12;100.00;100261.69;177102;1267;46053;-81
2023/12/03 03:47:03;;;;;;;16.50;12.70;;;;;;;-2.10;100.00;100268.23;177603;1268;46069;-83
2023/12/03 03:51:07;;;;;;;16.30;11.00;;;;;;;-2.09;100.00;100262.98;176709;1267;58247;-83
2023/12/03 03:55:08;;;;;;;16.60;9.90;;;;;;;-2.10;100.00;100271.37;177375;1272;46129;-82
2023/12/03 03:59:10;;;;;;;20.80;11.30;;;;;;;-2.08;100.00;100274.10;177337;1270;46135;-82
2023/12/03 04:03:12;;;;;;;18.90;12.00;;;;;;;-2.11;100.00;100280.23;177629;1267;45981;-81
2023/12/03 04:07:14;;;;;;;15.00;11.20;;;;;;;-2.13;100.00;100288.80;179623;1272;44581;-80
2023/12/03 04:11:17;;;;;;;16.60;10.80;;;;;;;-2.17;100.00;100294.13;178636;1267;60808;-84
2023/12/03 04:15:18;;;;;;;18.20;12.60;;;;;;;-2.17;100.00;100301.44;177031;1267;46186;-83
2023/12/03 04:19:20;;;;;;;18.70;12.70;;;;;;;-2.15;100.00;100305.75;176733;1269;46020;-83
2023/12/03 04:23:22;;;;;;;20.30;14.40;;;;;;;-2.16;100.00;100302.09;176970;1267;46018;-83
2023/12/03 04:27:25;;;;;;;18.90;14.20;;;;;;;-2.19;100.00;100313.29;176426;1267;46142;-83
2023/12/03 04:31:27;;;;;;;26.80;14.00;;;;;;;-2.22;100.00;100322.25;177221;1270;58229;-80
2023/12/03 04:35:29;;;;;;;13.20;8.80;;;;;;;-2.22;100.00;100326.78;177255;1269;46103;-83
2023/12/03 04:39:31;;;;;;;18.60;11.90;;;;;;;-2.14;100.00;100329.70;176992;1268;46075;-82
2023/12/03 04:43:32;;;;;;;17.00;11.00;;;;;;;-2.09;100.00;100327.30;177669;1273;46120;-82
2023/12/03 04:47:34;;;;;;;19.90;11.50;;;;;;;-2.06;100.00;100334.50;177346;1267;46059;-81
2023/12/03 04:51:36;;;;;;;14.60;9.20;;;;;;;-2.05;100.00;100339.51;177391;1267;58216;-81
2023/12/03 04:55:38;;;;;;;21.90;13.40;;;;;;;-2.03;100.00;100337.52;177768;1267;46236;-82
2023/12/03 04:59:39;;;;;;;19.80;12.90;;;;;;;-2.00;100.00;100343.00;176635;1271;46123;-83
2023/12/03 05:03:41;;;;;;;19.30;10.90;;;;;;;-1.95;100.00;100346.52;177736;1267;45992;-82
2023/12/03 05:07:43;;;;;;;24.40;14.00;;;;;;;-1.95;100.00;100355.90;176768;1267;46104;-83
2023/12/03 05:11:45;;;;;;;18.80;12.50;;;;;;;-1.98;100.00;100362.08;177041;1267;58061;-83
2023/12/03 05:15:46;;;;;;;18.50;12.20;;;;;;;-1.95;100.00;100364.97;176793;1267;44145;-82
2023/12/03 05:19:49;;;;;;;22.60;10.70;;;;;;;-1.95;100.00;100370.50;177028;1267;46033;-82
2023/12/03 05:23:50;;;;;;;19.40;13.00;;;;;;;-1.92;100.00;100362.79;176808;1267;46035;-82
2023/12/03 05:27:52;;;;;;;28.30;14.90;;;;;;;-1.88;100.00;100367.00;176969;1267;45978;-82
2023/12/03 05:31:54;;;;;;;21.90;16.00;;;;;;;-1.82;100.00;100369.80;176572;1272;57926;-81
2023/12/03 05:35:56;;;;;;;20.80;14.00;;;;;;;-1.77;100.00;100376.95;176840;1267;45989;-81
2023/12/03 05:39:58;;;;;;;21.40;13.20;;;;;;;-1.75;100.00;100382.64;177142;1267;45389;-83
2023/12/03 05:43:59;;;;;;;21.00;13.30;;;;;;;-1.73;100.00;100389.17;176538;1270;46588;-82
2023/12/03 05:48:01;;;;;;;17.20;13.10;;;;;;;-1.69;100.00;100390.65;178704;1267;46050;-82
2023/12/03 05:52:03;;;;;;;20.50;14.10;;;;;;;-1.64;100.00;100384.92;178178;1267;58365;-81
2023/12/03 05:56:06;;;;;;;18.30;11.10;;;;;;;-1.57;100.00;100396.90;177326;1267;45979;-82
2023/12/03 06:00:09;;;;;;;20.50;12.10;;;;;;;-1.50;100.00;100393.73;176638;1267;46117;-82
2023/12/03 06:04:10;;;;;;;22.20;13.50;;;;;;;-1.45;100.00;100395.66;177156;1267;48006;-82
2023/12/03 06:08:12;;;;;;;16.30;12.40;;;;;;;-1.41;100.00;100401.99;177141;1269;45999;-83
2023/12/03 06:12:14;;;;;;;27.80;15.20;;;;;;;-1.38;100.00;100412.15;177185;1267;57733;-82
2023/12/03 06:16:16;;;;;;;18.90;13.20;;;;;;;-1.36;100.00;100415.75;176689;1268;46047;-83
2023/12/03 06:20:22;;;;;;;25.40;20.00;;;;;;;-1.35;100.00;100423.02;176646;1267;46455;-82
2023/12/03 06:24:25;;;;;;;18.70;13.20;;;;;;;-1.45;100.00;100434.80;176851;1270;45924;-81
2023/12/03 06:28:27;;;;;;;21.00;13.40;;;;;;;-1.57;100.00;100441.42;177500;1270;46032;-83
2023/12/03 06:32:29;;;;;;;16.30;11.00;;;;;;;-1.63;100.00;100451.16;176469;1267;57739;-83
2023/12/03 06:36:31;;;;;;;22.60;13.30;;;;;;;-1.62;100.00;100458.08;177431;1267;44672;-82
2023/12/03 06:40:33;;;;;;;19.90;12.60;;;;;;;-1.62;100.00;100467.48;176836;1267;44213;-83
2023/12/03 06:44:35;;;;;;;20.30;13.10;;;;;;;-1.58;100.00;100480.74;176581;1267;46142;-82
2023/12/03 06:48:46;;;;;;;19.20;12.40;;;;;;;-1.56;100.00;100490.10;176557;1272;45917;-83
2023/12/03 06:52:47;;;;;;;17.70;9.80;;;;;;;-1.58;100.00;100497.09;176807;1269;59644;-83
2023/12/03 06:56:49;;;;;;;21.90;14.10;;;;;;;-1.58;100.00;100508.22;176862;1267;46228;-82
2023/12/03 07:00:51;;;;;;;26.30;14.80;;;;;;;-1.54;100.00;100516.30;176473;1267;46296;-84
2023/12/03 07:04:53;;;;;;;27.30;13.40;;;;;;;-1.53;100.00;100528.09;176524;1267;46044;-84
2023/12/03 07:08:54;;;;;;;24.50;14.30;;;;;;;-1.52;100.00;100530.86;177049;1267;46121;-83
2023/12/03 07:12:56;;;;;;;25.60;14.50;;;;;;;-1.52;100.00;100531.55;177028;1267;59333;-84
2023/12/03 07:16:58;;;;;;;24.80;17.00;;;;;;;-1.51;100.00;100534.30;176992;1271;46082;-85
2023/12/03 07:21:00;;;;;;;24.40;14.30;;;;;;;-1.52;100.00;100538.67;176454;1267;45925;-82
2023/12/03 07:25:05;;;;;;;22.90;15.60;;;;;;;-1.53;100.00;100542.70;176939;1267;46168;-85
2023/12/03 07:29:06;;;;;;;25.40;14.60;;;;;;;-1.51;100.00;100551.19;178726;1270;46009;-84
2023/12/03 07:33:08;;;;;;;25.20;14.00;;;;;;;-1.47;100.00;100553.67;179000;1267;58975;-81
2023/12/03 07:37:10;;;;;;;28.40;14.80;;;;;;;-1.44;100.00;100553.23;179688;1267;44489;-83
2023/12/03 07:41:12;;;;;;;33.40;17.90;;;;;;;-1.40;100.00;100558.02;177338;1267;46000;-85
2023/12/03 07:45:14;;;;;;;23.00;16.30;;;;;;;-1.40;100.00;100561.30;176904;1272;46121;-85
2023/12/03 07:49:16;;;;;;;24.80;16.10;;;;;;;-1.45;100.00;100569.10;176852;1267;46184;-84
2023/12/03 07:53:18;;;;;;;27.30;14.60;;;;;;;-1.50;100.00;100577.41;177079;1267;58736;-84
2023/12/03 07:57:19;;;;;;;28.70;16.60;;;;;;;-1.51;100.00;100576.75;177248;1267;46199;-85
2023/12/03 08:01:21;;;;;;;26.20;14.70;;;;;;;-1.49;100.00;100580.88;177252;1267;44348;-84
2023/12/03 08:05:23;;;;;;;27.40;15.30;;;;;;;-1.41;100.00;100580.47;177540;1269;46155;-84
2023/12/03 08:09:25;;;;;;;21.40;13.30;;;;;;;-1.32;100.00;100588.24;177052;1272;46001;-84
2023/12/03 08:13:27;;;;;;;28.70;16.70;;;;;;;-1.20;100.00;100590.38;176928;1267;58109;-84
2023/12/03 08:17:29;;;;;;;22.30;11.80;;;;;;;-1.12;100.00;100597.45;177829;1267;45802;-85
2023/12/03 08:21:32;;;;;;;21.50;13.30;;;;;;;-1.09;100.00;100600.84;177178;1267;46123;-83
2023/12/03 08:25:35;;;;;;;20.60;13.40;;;;;;;-1.14;100.00;100611.41;177078;1267;46159;-84
2023/12/03 08:29:37;;;;;;;19.50;9.60;;;;;;;-1.17;100.00;100612.54;177106;1267;45222;-82
2023/12/03 08:33:38;;;;;;;23.20;12.20;;;;;;;-1.16;100.00;100619.14;177101;1267;58274;-82
2023/12/03 08:37:40;;;;;;;22.70;12.50;;;;;;;-1.17;100.00;100621.59;176911;1267;46101;-82
2023/12/03 08:41:42;;;;;;;18.90;11.20;;;;;;;-1.25;100.00;100628.27;176387;1267;46155;-83
2023/12/03 08:45:44;;;;;;;20.20;11.40;;;;;;;-1.32;100.00;100639.75;176712;1267;46672;-83
2023/12/03 08:49:46;;;;;;;19.30;11.10;;;;;;;-1.29;100.00;100646.30;177512;1267;46105;-83
2023/12/03 08:53:48;;;;;;;18.60;11.50;;;;;;;-1.07;100.00;100655.11;177253;1267;58207;-82
2023/12/03 08:57:49;;;;;;;21.30;13.30;;;;;;;-0.88;100.00;100661.20;176885;1268;46664;-83
2023/12/03 09:01:51;;;;;;;21.40;12.90;;;;;;;-0.75;100.00;100664.30;177439;1268;44228;-84
2023/12/03 09:05:54;;;;;;;25.30;12.30;;;;;;;-0.67;100.00;100661.83;179013;1269;46037;-83
2023/12/03 09:09:56;;;;;;;18.20;15.00;;;;;;;-0.66;100.00;100660.55;177554;1270;45943;-85
2023/12/03 09:13:58;;;;;;;24.80;14.80;;;;;;;-0.71;100.00;100660.35;176781;1268;59568;-82
2023/12/03 09:18:00;;;;;;;22.30;14.30;;;;;;;-0.80;100.00;100660.44;176896;1272;46114;-85
2023/12/03 09:22:02;;;;;;;21.50;14.30;;;;;;;-0.92;100.00;100658.85;177723;1268;46024;-83
2023/12/03 09:26:05;;;;;;;29.70;14.80;;;;;;;-0.96;100.00;100654.10;177217;1267;46001;-84
2023/12/03 09:30:07;;;;;;;27.60;17.90;;;;;;;-0.95;100.00;100655.30;177040;1270;46025;-84
2023/12/03 09:34:09;;;;;;;29.90;14.60;;;;;;;-1.06;100.00;100654.02;176697;1268;58094;-84
2023/12/03 09:38:11;;;;;;;23.50;15.20;;;;;;;-1.23;100.00;100657.59;176797;1267;45972;-87
2023/12/03 09:42:18;;;;;;;29.00;16.40;;;;;;;-1.43;100.00;100654.82;177021;1267;43975;-86
2023/12/03 09:46:23;;;;;;;28.10;16.70;;;;;;;-1.59;100.00;100653.31;177334;1267;46142;-82
2023/12/03 09:50:25;;;;;;;28.20;17.20;;;;;;;-1.60;100.00;100652.48;176884;1268;45950;-84
2023/12/03 09:54:27;;;;;;;30.90;16.60;;;;;;;-1.62;100.00;100652.70;178779;1268;58026;-84
2023/12/03 09:58:29;;;;;;;26.40;16.70;;;;;;;-1.53;100.00;100649.88;177625;1272;46008;-83
2023/12/03 10:02:33;;;;;;;24.50;13.50;;;;;;;-1.29;100.00;100655.84;177043;1268;46194;-84
2023/12/03 10:06:42;;;;;;;22.70;13.00;;;;;;;-1.02;100.00;100665.59;177813;1268;45454;-83
2023/12/03 10:10:50;;;;;;;19.90;13.50;;;;;;;-0.85;100.00;100674.50;177290;1267;46137;-83
2023/12/03 10:14:52;;;;;;;24.10;14.90;;;;;;;-0.68;100.00;100676.65;176498;1270;60261;-82
2023/12/03 10:18:53;;;;;;;24.90;15.30;;;;;;;-0.47;100.00;100673.95;176770;1267;46069;-83
2023/12/03 10:22:58;;;;;;;26.80;17.50;;;;;;;-0.23;100.00;100670.79;176508;1268;46012;-84
2023/12/03 10:27:00;;;;;;;20.80;12.50;;;;;;;-0.08;100.00;100663.89;176664;1270;46136;-83
2023/12/03 10:31:03;;;;;;;33.00;15.90;;;;;;;-0.01;100.00;100668.04;178132;1267;46041;-83
2023/12/03 10:35:08;;;;;;;30.40;18.40;;;;;;;0.10;100.00;100675.71;177356;1268;59284;-84
2023/12/03 10:39:16;;;;;;;27.10;16.60;;;;;;;0.18;100.00;100679.98;176971;1267;46022;-84
2023/12/03 10:43:22;;;;;;;26.00;15.10;;;;;;;0.24;100.00;100683.64;177148;1268;46142;-84
2023/12/03 10:47:25;;;;;;;29.10;18.30;;;;;;;0.33;100.00;100685.44;176491;1267;46149;-84
2023/12/03 10:51:31;;;;;;;27.00;13.40;;;;;;;0.41;100.00;100688.48;176662;1267;45971;-84
2023/12/03 10:55:33;;;;;;;22.70;14.20;;;;;;;0.58;100.00;100688.64;177164;1267;59461;-85
2023/12/03 10:59:37;;;;;;;20.50;13.00;;;;;;;0.80;100.00;100695.21;177938;1267;46142;-83
2023/12/03 11:03:56;;;;;;;27.90;17.40;;;;;;;1.03;100.00;100693.73;179676;1270;46120;-82
2023/12/03 11:08:02;;;;;;;25.30;17.40;;;;;;;1.26;100.00;100695.70;178539;1267;45815;-85
2023/12/03 11:12:07;;;;;;;20.90;14.50;;;;;;;1.49;100.00;100697.13;177465;1267;45069;-84
2023/12/03 11:16:12;;;;;;;21.40;15.00;;;;;;;1.61;100.00;100698.81;177530;1267;59423;-84
2023/12/03 11:20:21;;;;;;;27.60;14.20;;;;;;;1.41;100.00;100704.79;176573;1267;46033;-83
2023/12/03 11:24:39;;;;;;;14.60;10.90;;;;;;;1.36;100.00;100704.59;176689;1268;45986;-82
2023/12/03 11:28:55;;;;;;;19.70;11.80;;;;;;;0.96;100.00;100702.71;177276;1267;46139;-81
2023/12/03 11:32:59;;;;;;;15.60;10.80;;;;;;;0.65;100.00;100698.35;176574;1267;46113;-83
2023/12/03 11:37:01;;;;;;;25.00;15.60;;;;;;;0.44;100.00;100703.05;177143;1268;59995;-83
2023/12/03 11:41:10;;;;;;;30.10;18.20;;;;;;;0.32;100.00;100704.31;177962;1267;46225;-83
2023/12/03 11:45:19;;;;;;;17.70;11.40;;;;;;;0.19;100.00;100698.80;177224;1268;46266;-83
2023/12/03 11:49:21;;;;;;;21.70;12.80;;;;;;;0.35;100.00;100695.34;177983;1268;46339;-82
2023/12/03 11:53:39;;;;;;;21.30;12.00;;;;;;;0.56;100.00;100694.98;178162;1268;46037;-84
2023/12/03 11:57:40;;;;;;;17.20;11.20;;;;;;;0.83;100.00;100696.70;177264;1267;59620;-82
2023/12/03 12:01:42;;;;;;;24.00;13.70;;;;;;;1.06;100.00;100701.51;177132;1267;44077;-84
2023/12/03 12:05:46;;;;;;;16.10;10.70;;;;;;;1.25;100.00;100701.49;176918;1267;44883;-82
2023/12/03 12:09:48;;;;;;;16.20;11.10;;;;;;;1.43;100.00;100699.30;177309;1267;46118;-83
2023/12/03 12:13:50;;;;;;;20.40;11.60;;;;;;;1.54;100.00;100698.55;177657;1267;46003;-81
2023/12/03 12:17:52;;;;;;;20.60;12.00;;;;;;;1.69;100.00;100700.94;177487;1267;58298;-82
2023/12/03 12:22:11;;;;;;;12.50;9.60;;;;;;;1.87;100.00;100691.85;177018;1267;46147;-82
2023/12/03 12:26:13;;;;;;;18.20;10.60;;;;;;;1.92;100.00;100696.39;177363;1268;46047;-83
2023/12/03 12:30:29;;;;;;;9.30;6.30;;;;;;;1.87;100.00;100693.60;179453;1267;44238;-82
2023/12/03 12:34:37;;;;;;;15.70;10.50;;;;;;;1.76;100.00;100693.86;177784;1267;46034;-82
2023/12/03 12:38:40;;;;;;;13.80;8.30;;;;;;;1.63;100.00;100693.47;177327;1267;59549;-83
2023/12/03 12:42:42;;;;;;;12.50;8.20;;;;;;;1.54;100.00;100693.44;177710;1267;46012;-82
2023/12/03 12:46:58;;;;;;;19.40;11.10;;;;;;;1.43;100.00;100696.33;176967;1268;46114;-83
2023/12/03 12:51:01;;;;;;;16.20;10.60;;;;;;;1.36;100.00;100698.14;177984;1267;44447;-82
2023/12/03 12:55:04;;;;;;;12.40;8.70;;;;;;;1.30;100.00;100698.88;177149;1267;46088;-82
2023/12/03 12:59:13;;;;;;;15.80;12.50;;;;;;;1.22;100.00;100703.86;178193;1268;58274;-83
2023/12/03 13:03:15;;;;;;;19.70;13.80;;;;;;;1.13;100.00;100701.74;178029;1269;48010;-83
2023/12/03 13:07:18;;;;;;;19.70;13.10;;;;;;;1.10;100.00;100711.48;177419;1268;46105;-83
2023/12/03 13:11:20;;;;;;;20.20;13.00;;;;;;;1.06;100.00;100708.64;177407;1267;46017;-86
2023/12/03 13:15:21;;;;;;;19.60;11.40;;;;;;;1.04;100.00;100708.88;178213;1268;46062;-84
2023/12/03 13:19:24;;;;;;;18.10;10.30;;;;;;;0.99;100.00;100709.25;177341;1267;57232;-85
2023/12/03 13:23:25;;;;;;;25.50;14.20;;;;;;;0.96;100.00;100713.89;177691;1268;46031;-84
2023/12/03 13:27:28;;;;;;;19.70;12.60;;;;;;;0.88;100.00;100718.88;177711;1268;46141;-85
2023/12/03 13:31:30;;;;;;;18.50;12.10;;;;;;;0.82;100.00;100719.77;177379;1268;262790;-86
2023/12/03 13:35:32;;;;;;;15.80;12.70;;;;;;;0.81;100.00;100725.05;177723;1267;46089;-84
2023/12/03 13:39:35;;;;;;;21.30;15.00;;;;;;;0.82;100.00;100729.92;178377;1268;57256;-84
2023/12/03 13:43:37;;;;;;;23.00;15.10;;;;;;;0.83;100.00;100725.52;176593;1268;46005;-85
2023/12/03 13:47:38;;;;;;;22.00;13.50;;;;;;;0.82;100.00;100724.00;176970;1268;45599;-84
2023/12/03 13:51:40;;;;;;;23.80;15.40;;;;;;;0.77;100.00;100729.54;177025;1267;46036;-84
2023/12/03 13:55:42;;;;;;;17.20;12.80;;;;;;;0.72;100.00;100733.88;177295;1267;44122;-83
2023/12/03 13:59:44;;;;;;;17.80;14.10;;;;;;;0.66;100.00;100740.58;177442;1267;59442;-84
2023/12/03 14:03:45;;;;;;;21.70;13.70;;;;;;;0.57;100.00;100740.67;177850;1267;44037;-84
2023/12/03 14:07:47;;;;;;;25.50;14.10;;;;;;;0.54;100.00;100740.77;177106;1268;46133;-86
2023/12/03 14:11:49;;;;;;;16.60;10.60;;;;;;;0.50;100.00;100742.83;177242;1267;46100;-84
2023/12/03 14:15:51;;;;;;;26.10;16.00;;;;;;;0.45;100.00;100750.33;177517;1268;44232;-83
2023/12/03 14:19:53;;;;;;;22.00;13.20;;;;;;;0.44;100.00;100750.70;179165;1268;57934;-83
2023/12/03 14:23:54;;;;;;;22.10;12.50;;;;;;;0.38;100.00;100754.71;179805;1268;44269;-86
2023/12/03 14:27:56;;;;;;;16.40;11.60;;;;;;;0.38;100.00;100757.52;177890;1268;45897;-86
2023/12/03 14:31:58;;;;;;;17.00;13.30;;;;;;;0.32;100.00;100758.03;177724;1268;46124;-85
2023/12/03 14:36:00;;;;;;;20.20;14.10;;;;;;;0.32;100.00;100759.29;177727;1268;45981;-85
2023/12/03 14:40:03;;;;;;;23.50;16.40;;;;;;;0.33;100.00;100763.95;177002;1268;58694;-82
2023/12/03 14:44:06;;;;;;;23.80;13.90;;;;;;;0.36;100.00;100764.38;177725;1268;46098;-85
2023/12/03 14:48:07;;;;;;;19.70;14.30;;;;;;;0.33;100.00;100769.38;177815;1268;46017;-85
2023/12/03 14:52:10;;;;;;;21.60;15.20;;;;;;;0.27;100.00;100772.70;177120;1267;46126;-85
2023/12/03 14:56:22;;;;;;;32.20;19.60;;;;;;;0.19;100.00;100776.95;177566;1268;44107;-84
2023/12/03 15:00:25;;;;;;;23.50;17.30;;;;;;;0.17;100.00;100778.23;177383;1267;59385;-83
2023/12/03 15:04:27;;;;;;;22.20;15.40;;;;;;;0.15;100.00;100783.33;177854;1270;44277;-82
2023/12/03 15:08:29;;;;;;;25.10;15.00;;;;;;;0.12;100.00;100789.00;177501;1270;46184;-86
2023/12/03 15:12:32;;;;;;;24.20;16.10;;;;;;;0.10;100.00;100788.89;176657;1268;46101;-84
2023/12/03 15:16:35;;;;;;;24.70;14.90;;;;;;;0.08;100.00;100796.46;177070;1267;45989;-84
2023/12/03 15:20:37;;;;;;;22.70;15.70;;;;;;;0.07;100.00;100802.77;177633;1271;58248;-83
2023/12/03 15:24:39;;;;;;;24.60;13.40;;;;;;;0.10;100.00;100800.77;177391;1267;44543;-85
2023/12/03 15:28:42;;;;;;;21.90;14.60;;;;;;;0.09;100.00;100800.42;177742;1268;46038;-85
2023/12/03 15:32:44;;;;;;;27.10;15.80;;;;;;;0.10;100.00;100801.47;177949;1267;46126;-83
2023/12/03 15:36:48;;;;;;;23.40;15.00;;;;;;;0.10;100.00;100807.03;177521;1268;46063;-84
2023/12/03 15:40:50;;;;;;;20.30;12.10;;;;;;;0.05;100.00;100812.05;177657;1268;59996;-84
2023/12/03 15:44:51;;;;;;;18.30;12.20;;;;;;;0.01;100.00;100814.64;177976;1268;46126;-84
2023/12/03 15:48:53;;;;;;;21.60;13.50;;;;;;;-0.02;100.00;100824.83;177256;1267;46222;-83
2023/12/03 15:53:03;;;;;;;19.00;11.90;;;;;;;-0.03;100.00;100824.30;177131;1268;45915;-83
2023/12/03 15:57:05;;;;;;;23.70;14.10;;;;;;;-0.05;100.00;100830.67;176946;1267;45882;-82
2023/12/03 16:01:11;;;;;;;22.80;14.00;;;;;;;-0.03;100.00;100830.09;176691;1268;59548;-84
2023/12/03 16:05:13;;;;;;;24.10;14.70;;;;;;;-0.03;100.00;100831.65;177236;1268;46276;-82
2023/12/03 16:09:14;;;;;;;24.70;14.00;;;;;;;-0.07;100.00;100831.77;176860;1268;46046;-85
2023/12/03 16:13:16;;;;;;;21.40;15.40;;;;;;;-0.14;100.00;100832.48;177167;1268;46109;-85
2023/12/03 16:17:18;;;;;;;25.20;16.30;;;;;;;-0.21;100.00;100833.89;177187;1267;46128;-83
2023/12/03 16:21:28;;;;;;;28.50;15.60;;;;;;;-0.33;100.00;100832.85;177960;1267;58279;-83
2023/12/03 16:25:31;;;;;;;24.40;14.10;;;;;;;-0.44;100.00;100839.39;177988;1268;44137;-86
2023/12/03 16:29:33;;;;;;;34.70;15.00;;;;;;;-0.55;100.00;100839.88;177495;1268;46143;-86
2023/12/03 16:33:37;;;;;;;20.20;15.70;;;;;;;-0.72;100.00;100839.09;178151;1268;44602;-85
2023/12/03 16:37:39;;;;;;;21.60;12.40;;;;;;;-0.82;100.00;100841.95;177530;1268;45968;-83
2023/12/03 16:41:41;;;;;;;20.90;13.50;;;;;;;-0.92;100.00;100846.73;177296;1268;59381;-86
2023/12/03 16:45:43;;;;;;;22.90;14.10;;;;;;;-1.06;100.00;100847.42;176694;1267;46446;-84
2023/12/03 16:49:48;;;;;;;22.90;14.80;;;;;;;-1.19;100.00;100849.66;177458;1267;46030;-84
2023/12/03 16:53:50;;;;;;;22.70;14.10;;;;;;;-1.26;100.00;100853.65;177070;1271;46072;-85
2023/12/03 16:57:51;;;;;;;25.80;16.40;;;;;;;-1.35;100.00;100858.20;177833;1267;44776;-86
2023/12/03 17:01:53;;;;;;;22.30;14.60;;;;;;;-1.44;100.00;100863.27;177589;1268;57420;-85
2023/12/03 17:05:55;;;;;;;29.00;17.40;;;;;;;-1.48;100.00;100866.86;177207;1268;45885;-85
2023/12/03 17:09:57;;;;;;;25.00;15.40;;;;;;;-1.48;100.00;100863.71;177189;1268;46127;-84
2023/12/03 17:13:59;;;;;;;26.40;13.50;;;;;;;-1.43;100.00;100863.95;177510;1269;46129;-85
2023/12/03 17:18:01;;;;;;;34.00;17.00;;;;;;;-1.42;100.00;100863.23;177890;1268;45982;-84
2023/12/03 17:22:03;;;;;;;29.30;15.90;;;;;;;-1.38;100.00;100859.84;177756;1268;57076;-85
2023/12/03 17:26:06;;;;;;;27.20;16.90;;;;;;;-1.38;100.00;100862.98;177868;1270;44267;-84
2023/12/03 17:30:09;;;;;;;20.30;16.50;;;;;;;-1.43;100.00;100861.86;177468;1269;45996;-85
2023/12/03 17:34:11;;;;;;;25.70;16.20;;;;;;;-1.42;100.00;100861.15;176962;1268;46151;-86
2023/12/03 17:38:14;;;;;;;22.80;15.40;;;;;;;-1.39;100.00;100860.38;178342;1268;46091;-85
2023/12/03 17:42:16;;;;;;;20.60;16.10;;;;;;;-1.40;100.00;100864.42;178623;1268;58400;-87
2023/12/03 17:46:17;;;;;;;29.70;17.50;;;;;;;-1.49;100.00;100864.45;177993;1272;46108;-87
2023/12/03 17:50:20;;;;;;;29.00;16.30;;;;;;;-1.62;100.00;100868.89;179087;1267;45140;-82
2023/12/03 17:54:22;;;;;;;38.50;22.50;;;;;;;-1.88;100.00;100874.83;179468;1267;46020;-85
2023/12/03 17:58:25;;;;;;;36.40;19.90;;;;;;;-1.85;100.00;100877.73;177856;1272;46015;-84
2023/12/03 18:02:27;;;;;;;31.90;17.80;;;;;;;-1.79;100.00;100882.48;177081;1268;58736;-84